Prichard, AL (36610)

1:26 AM CST on February 10, 2016 (GMT -0600)
Downtown Waterfront | | Change Station
CLOSE
Current Station
Personal Weather Station
Location: Mobile, AL
Elevation: 13 ft
Nearby Weather Stations

Elev 13 ft 30.69 °N, 88.04 °W | Updated 3 seconds ago

Clear
Clear
41.2 °F
Feels Like 36 °F
N
8.0
Wind Variable Wind from NNW
Gusts 15.0 mph

Today
High -- | Low -- °F
--% Chance of Precip.
Yesterday
High -- | Low -- °F
Precip. -- in
Pressure 30.20 in
Visibility 10.0 miles
Clouds Clear
Windchill 36 °F
Dew Point 20 °F
Humidity 43%
Rainfall 0.00 in
Snow Depth Not available.
6:37 AM 5:35 PM
Waxing Crescent, 4% visible
METAR KBFM 100653Z AUTO 31007KT 10SM CLR 04/M05 A3020 RMK AO2 SLP227 T00391050
Pressure 30.20 in
Visibility 10.0 miles
Clouds Clear
Windchill 36 °F
Dew Point 20 °F
Humidity 43%
Rainfall 0.00 in
Snow Depth Not available.
6:37 AM 5:35 PM
Waxing Crescent, 4% visible
METAR KBFM 100653Z AUTO 31007KT 10SM CLR 04/M05 A3020 RMK AO2 SLP227 T00391050

10-Day Weather Forecast

Almanac

Astronomy

Feb. 10, 2016 Rise Set
Actual Time
Civil Twilight
Nautical Twilight
Astronomical Twilight
Moon
Length of Visible Light
Length of Day
Tomorrow will be .
, % of the Moon is Illuminated

Today's Extremes

State Highs State Lows

Community

WunderPhotos

Upload Photos

1,891,826 photos uploaded!

WunderBlog® & News

Nearby

Air Quality

  Air Quality AQ Index Pollutant
Not available.

Snow Depth

Station Depth Elevation

Earthquake Activity

City Distance Mag. Time & Date
Minimum magnitude displayed is 2.5.

Coastal Water Temperatures

Place Temperature

Stations

Nearby Weather Stations

Station Location Temp. Windchill Dew Point Humidity Wind Precip. Elev Updated Type
                   

Watches & Warnings

There are currently no watches in effect.